sensor_id;sensor_type;location;lat;lon;timestamp;temperature;humidity
14723;DHT22;7452;55.594;12.986;2022-10-31T00:01:12;13.70;99.90
14723;DHT22;7452;55.594;12.986;2022-10-31T00:03:41;13.70;99.90
14723;DHT22;7452;55.594;12.986;2022-10-31T00:06:09;13.80;99.90
14723;DHT22;7452;55.594;12.986;2022-10-31T00:08:37;13.70;99.90
14723;DHT22;7452;55.594;12.986;2022-10-31T00:11:08;13.70;99.90
14723;DHT22;7452;55.594;12.986;2022-10-31T00:13:35;13.70;99.90
14723;DHT22;7452;55.594;12.986;2022-10-31T00:16:03;13.80;99.90
14723;DHT22;7452;55.594;12.986;2022-10-31T00:18:33;13.80;99.90
14723;DHT22;7452;55.594;12.986;2022-10-31T00:21:02;13.80;99.90
14723;DHT22;7452;55.594;12.986;2022-10-31T00:23:36;13.80;99.90
14723;DHT22;7452;55.594;12.986;2022-10-31T00:26:04;13.80;99.90
14723;DHT22;7452;55.594;12.986;2022-10-31T00:28:32;13.80;99.90
14723;DHT22;7452;55.594;12.986;2022-10-31T00:31:00;13.80;99.90
14723;DHT22;7452;55.594;12.986;2022-10-31T00:33:28;13.80;99.90
14723;DHT22;7452;55.594;12.986;2022-10-31T00:35:55;13.80;99.90
14723;DHT22;7452;55.594;12.986;2022-10-31T00:38:24;13.80;99.90
14723;DHT22;7452;55.594;12.986;2022-10-31T00:40:52;13.80;99.90
14723;DHT22;7452;55.594;12.986;2022-10-31T00:43:19;13.80;99.90
14723;DHT22;7452;55.594;12.986;2022-10-31T00:45:47;13.90;99.90
14723;DHT22;7452;55.594;12.986;2022-10-31T00:48:16;13.90;99.90
14723;DHT22;7452;55.594;12.986;2022-10-31T00:50:44;13.90;99.90
14723;DHT22;7452;55.594;12.986;2022-10-31T00:53:12;13.90;99.90
14723;DHT22;7452;55.594;12.986;2022-10-31T00:55:44;13.90;99.90
14723;DHT22;7452;55.594;12.986;2022-10-31T00:58:11;13.90;99.90
14723;DHT22;7452;55.594;12.986;2022-10-31T01:00:38;13.90;99.90
14723;DHT22;7452;55.594;12.986;2022-10-31T01:03:05;13.90;99.90
14723;DHT22;7452;55.594;12.986;2022-10-31T01:05:38;14.00;99.90
14723;DHT22;7452;55.594;12.986;2022-10-31T01:08:05;14.00;99.90
14723;DHT22;7452;55.594;12.986;2022-10-31T01:10:33;14.00;99.90
14723;DHT22;7452;55.594;12.986;2022-10-31T01:13:05;14.00;99.90
14723;DHT22;7452;55.594;12.986;2022-10-31T01:15:32;14.00;99.90
14723;DHT22;7452;55.594;12.986;2022-10-31T01:17:59;14.00;99.90
14723;DHT22;7452;55.594;12.986;2022-10-31T01:20:26;14.00;99.90
14723;DHT22;7452;55.594;12.986;2022-10-31T01:22:57;13.90;99.90
14723;DHT22;7452;55.594;12.986;2022-10-31T01:25:24;14.00;99.90
14723;DHT22;7452;55.594;12.986;2022-10-31T01:27:51;14.00;99.90
14723;DHT22;7452;55.594;12.986;2022-10-31T01:30:20;13.90;99.90
14723;DHT22;7452;55.594;12.986;2022-10-31T01:32:48;14.00;99.90
14723;DHT22;7452;55.594;12.986;2022-10-31T01:35:15;13.90;99.90
14723;DHT22;7452;55.594;12.986;2022-10-31T01:37:45;14.00;99.90
14723;DHT22;7452;55.594;12.986;2022-10-31T01:40:14;13.90;99.90
14723;DHT22;7452;55.594;12.986;2022-10-31T01:42:42;14.00;99.90
14723;DHT22;7452;55.594;12.986;2022-10-31T01:45:11;14.00;99.90
14723;DHT22;7452;55.594;12.986;2022-10-31T01:47:45;13.90;99.90
14723;DHT22;7452;55.594;12.986;2022-10-31T01:50:28;13.90;99.90
14723;DHT22;7452;55.594;12.986;2022-10-31T01:52:56;13.90;99.90
14723;DHT22;7452;55.594;12.986;2022-10-31T01:55:27;13.90;99.90
14723;DHT22;7452;55.594;12.986;2022-10-31T01:57:58;14.00;99.90
14723;DHT22;7452;55.594;12.986;2022-10-31T02:00:26;14.00;99.90
14723;DHT22;7452;55.594;12.986;2022-10-31T02:02:55;14.00;99.90
14723;DHT22;7452;55.594;12.986;2022-10-31T02:05:25;13.90;99.90
14723;DHT22;7452;55.594;12.986;2022-10-31T02:07:57;13.90;99.90
14723;DHT22;7452;55.594;12.986;2022-10-31T02:10:27;13.90;99.90
14723;DHT22;7452;55.594;12.986;2022-10-31T02:12:57;13.90;99.90
14723;DHT22;7452;55.594;12.986;2022-10-31T02:15:25;13.90;99.90
14723;DHT22;7452;55.594;12.986;2022-10-31T02:17:56;13.90;99.90
14723;DHT22;7452;55.594;12.986;2022-10-31T02:20:29;13.90;99.90
14723;DHT22;7452;55.594;12.986;2022-10-31T02:23:26;13.80;99.90
14723;DHT22;7452;55.594;12.986;2022-10-31T02:29:15;13.80;99.90
14723;DHT22;7452;55.594;12.986;2022-10-31T02:31:49;13.90;99.90
14723;DHT22;7452;55.594;12.986;2022-10-31T02:34:22;13.90;99.90
14723;DHT22;7452;55.594;12.986;2022-10-31T02:36:57;13.90;99.90
14723;DHT22;7452;55.594;12.986;2022-10-31T02:39:29;13.90;99.90
14723;DHT22;7452;55.594;12.986;2022-10-31T02:42:04;13.90;99.90
14723;DHT22;7452;55.594;12.986;2022-10-31T02:44:41;13.90;99.90
14723;DHT22;7452;55.594;12.986;2022-10-31T02:47:13;13.90;99.90
14723;DHT22;7452;55.594;12.986;2022-10-31T02:49:48;13.90;99.90
14723;DHT22;7452;55.594;12.986;2022-10-31T02:52:18;13.90;99.90
14723;DHT22;7452;55.594;12.986;2022-10-31T02:54:47;13.90;99.90
14723;DHT22;7452;55.594;12.986;2022-10-31T02:57:17;13.90;99.90
14723;DHT22;7452;55.594;12.986;2022-10-31T02:59:48;13.90;99.90
14723;DHT22;7452;55.594;12.986;2022-10-31T03:02:27;13.90;99.90
14723;DHT22;7452;55.594;12.986;2022-10-31T03:05:11;13.90;99.90
14723;DHT22;7452;55.594;12.986;2022-10-31T03:07:50;13.90;99.90
14723;DHT22;7452;55.594;12.986;2022-10-31T03:10:25;14.00;99.90
14723;DHT22;7452;55.594;12.986;2022-10-31T03:13:02;14.00;99.90
14723;DHT22;7452;55.594;12.986;2022-10-31T03:15:34;14.00;99.90
14723;DHT22;7452;55.594;12.986;2022-10-31T03:18:06;14.00;99.90
14723;DHT22;7452;55.594;12.986;2022-10-31T03:20:39;14.00;99.90
14723;DHT22;7452;55.594;12.986;2022-10-31T03:23:11;13.90;99.90
14723;DHT22;7452;55.594;12.986;2022-10-31T03:25:39;14.00;99.90
14723;DHT22;7452;55.594;12.986;2022-10-31T03:28:11;14.00;99.90
14723;DHT22;7452;55.594;12.986;2022-10-31T03:30:43;13.90;99.90
14723;DHT22;7452;55.594;12.986;2022-10-31T03:33:19;14.00;99.90
14723;DHT22;7452;55.594;12.986;2022-10-31T03:35:51;14.00;99.90
14723;DHT22;7452;55.594;12.986;2022-10-31T03:38:20;14.00;99.90
14723;DHT22;7452;55.594;12.986;2022-10-31T03:40:51;14.00;99.90
14723;DHT22;7452;55.594;12.986;2022-10-31T03:43:25;14.00;99.90
14723;DHT22;7452;55.594;12.986;2022-10-31T03:45:53;14.00;99.90
14723;DHT22;7452;55.594;12.986;2022-10-31T03:48:23;14.00;99.90
14723;DHT22;7452;55.594;12.986;2022-10-31T03:50:57;14.00;99.90
14723;DHT22;7452;55.594;12.986;2022-10-31T03:53:27;14.00;99.90
14723;DHT22;7452;55.594;12.986;2022-10-31T03:56:00;14.00;99.90
14723;DHT22;7452;55.594;12.986;2022-10-31T03:58:33;14.00;99.90
14723;DHT22;7452;55.594;12.986;2022-10-31T04:01:04;14.00;99.90
14723;DHT22;7452;55.594;12.986;2022-10-31T04:03:36;14.00;99.90
14723;DHT22;7452;55.594;12.986;2022-10-31T04:06:07;14.00;99.90
14723;DHT22;7452;55.594;12.986;2022-10-31T04:08:39;14.00;99.90
14723;DHT22;7452;55.594;12.986;2022-10-31T04:11:08;13.90;99.90
14723;DHT22;7452;55.594;12.986;2022-10-31T04:13:37;13.90;99.90
14723;DHT22;7452;55.594;12.986;2022-10-31T04:16:07;14.00;99.90
14723;DHT22;7452;55.594;12.986;2022-10-31T04:18:39;14.00;99.90
14723;DHT22;7452;55.594;12.986;2022-10-31T04:21:07;13.90;99.90
14723;DHT22;7452;55.594;12.986;2022-10-31T04:23:36;13.90;99.90
14723;DHT22;7452;55.594;12.986;2022-10-31T04:26:07;13.90;99.90
14723;DHT22;7452;55.594;12.986;2022-10-31T04:28:35;13.90;99.90
14723;DHT22;7452;55.594;12.986;2022-10-31T04:31:02;13.90;99.90
14723;DHT22;7452;55.594;12.986;2022-10-31T04:33:29;13.90;99.90
14723;DHT22;7452;55.594;12.986;2022-10-31T04:35:58;13.90;99.90
14723;DHT22;7452;55.594;12.986;2022-10-31T04:38:25;13.90;99.90
14723;DHT22;7452;55.594;12.986;2022-10-31T04:40:53;13.90;99.90
14723;DHT22;7452;55.594;12.986;2022-10-31T04:43:21;13.90;99.90
14723;DHT22;7452;55.594;12.986;2022-10-31T04:45:48;13.90;99.90
14723;DHT22;7452;55.594;12.986;2022-10-31T04:48:15;13.90;99.90
14723;DHT22;7452;55.594;12.986;2022-10-31T04:50:43;13.80;99.90
14723;DHT22;7452;55.594;12.986;2022-10-31T04:53:13;13.80;99.90
14723;DHT22;7452;55.594;12.986;2022-10-31T04:55:41;13.80;99.90
14723;DHT22;7452;55.594;12.986;2022-10-31T04:58:09;13.80;99.90
14723;DHT22;7452;55.594;12.986;2022-10-31T05:00:38;13.80;99.90
14723;DHT22;7452;55.594;12.986;2022-10-31T05:03:10;13.80;99.90
14723;DHT22;7452;55.594;12.986;2022-10-31T05:05:37;13.90;99.90
14723;DHT22;7452;55.594;12.986;2022-10-31T05:08:06;13.80;99.90
14723;DHT22;7452;55.594;12.986;2022-10-31T05:10:34;13.90;99.90
14723;DHT22;7452;55.594;12.986;2022-10-31T05:13:02;13.80;99.90
14723;DHT22;7452;55.594;12.986;2022-10-31T05:15:30;13.80;99.90
14723;DHT22;7452;55.594;12.986;2022-10-31T05:17:58;13.80;99.90
14723;DHT22;7452;55.594;12.986;2022-10-31T05:20:27;13.90;99.90
14723;DHT22;7452;55.594;12.986;2022-10-31T05:22:55;13.90;99.90
14723;DHT22;7452;55.594;12.986;2022-10-31T05:25:23;13.90;99.90
14723;DHT22;7452;55.594;12.986;2022-10-31T05:27:54;13.90;99.90
14723;DHT22;7452;55.594;12.986;2022-10-31T05:30:24;13.90;99.90
14723;DHT22;7452;55.594;12.986;2022-10-31T05:32:52;13.90;99.90
14723;DHT22;7452;55.594;12.986;2022-10-31T05:35:20;13.90;99.90
14723;DHT22;7452;55.594;12.986;2022-10-31T05:37:47;13.90;99.90
14723;DHT22;7452;55.594;12.986;2022-10-31T05:40:16;13.90;99.90
14723;DHT22;7452;55.594;12.986;2022-10-31T05:42:44;13.90;99.90
14723;DHT22;7452;55.594;12.986;2022-10-31T05:45:16;13.90;99.90
14723;DHT22;7452;55.594;12.986;2022-10-31T05:47:50;13.90;99.90
14723;DHT22;7452;55.594;12.986;2022-10-31T05:50:17;13.90;99.90
14723;DHT22;7452;55.594;12.986;2022-10-31T05:52:47;13.80;99.90
14723;DHT22;7452;55.594;12.986;2022-10-31T05:55:16;13.90;99.90
14723;DHT22;7452;55.594;12.986;2022-10-31T05:57:45;13.90;99.90
14723;DHT22;7452;55.594;12.986;2022-10-31T06:00:14;13.80;99.90
14723;DHT22;7452;55.594;12.986;2022-10-31T06:02:41;13.80;99.90
14723;DHT22;7452;55.594;12.986;2022-10-31T06:05:08;13.80;99.90
14723;DHT22;7452;55.594;12.986;2022-10-31T06:07:35;13.80;99.90
14723;DHT22;7452;55.594;12.986;2022-10-31T06:10:04;13.80;99.90
14723;DHT22;7452;55.594;12.986;2022-10-31T06:12:34;13.80;99.90
14723;DHT22;7452;55.594;12.986;2022-10-31T06:15:07;13.80;99.90
14723;DHT22;7452;55.594;12.986;2022-10-31T06:17:37;13.80;99.90
14723;DHT22;7452;55.594;12.986;2022-10-31T06:20:06;13.90;99.90
14723;DHT22;7452;55.594;12.986;2022-10-31T06:22:34;13.90;99.90
14723;DHT22;7452;55.594;12.986;2022-10-31T06:25:01;14.00;99.90
14723;DHT22;7452;55.594;12.986;2022-10-31T06:27:30;14.00;99.90
14723;DHT22;7452;55.594;12.986;2022-10-31T06:29:57;13.90;99.90
14723;DHT22;7452;55.594;12.986;2022-10-31T06:32:26;13.90;99.90
14723;DHT22;7452;55.594;12.986;2022-10-31T06:34:55;13.90;99.90
14723;DHT22;7452;55.594;12.986;2022-10-31T06:37:22;13.90;99.90
14723;DHT22;7452;55.594;12.986;2022-10-31T06:39:49;14.00;99.90
14723;DHT22;7452;55.594;12.986;2022-10-31T06:42:17;13.90;99.90
14723;DHT22;7452;55.594;12.986;2022-10-31T06:44:44;13.90;99.90
14723;DHT22;7452;55.594;12.986;2022-10-31T06:47:11;13.90;99.90
14723;DHT22;7452;55.594;12.986;2022-10-31T06:49:39;13.90;99.90
14723;DHT22;7452;55.594;12.986;2022-10-31T06:52:10;14.00;99.90
14723;DHT22;7452;55.594;12.986;2022-10-31T06:54:37;14.00;99.90
14723;DHT22;7452;55.594;12.986;2022-10-31T06:57:12;14.00;99.90
14723;DHT22;7452;55.594;12.986;2022-10-31T06:59:40;14.00;99.90
14723;DHT22;7452;55.594;12.986;2022-10-31T07:02:09;14.00;99.90
14723;DHT22;7452;55.594;12.986;2022-10-31T07:04:36;14.00;99.90
14723;DHT22;7452;55.594;12.986;2022-10-31T07:07:04;14.00;99.90
14723;DHT22;7452;55.594;12.986;2022-10-31T07:09:33;14.10;99.90
14723;DHT22;7452;55.594;12.986;2022-10-31T07:12:00;14.10;99.90
14723;DHT22;7452;55.594;12.986;2022-10-31T07:14:27;14.10;99.90
14723;DHT22;7452;55.594;12.986;2022-10-31T07:16:54;14.10;99.90
14723;DHT22;7452;55.594;12.986;2022-10-31T07:19:22;14.10;99.90
14723;DHT22;7452;55.594;12.986;2022-10-31T07:21:49;14.20;99.90
14723;DHT22;7452;55.594;12.986;2022-10-31T07:24:17;14.20;99.90
14723;DHT22;7452;55.594;12.986;2022-10-31T07:26:45;14.20;99.90
14723;DHT22;7452;55.594;12.986;2022-10-31T07:29:13;14.20;99.90
14723;DHT22;7452;55.594;12.986;2022-10-31T07:31:40;14.30;99.90
14723;DHT22;7452;55.594;12.986;2022-10-31T07:34:09;14.30;99.90
14723;DHT22;7452;55.594;12.986;2022-10-31T07:36:36;14.40;99.90
14723;DHT22;7452;55.594;12.986;2022-10-31T07:39:05;14.50;99.90
14723;DHT22;7452;55.594;12.986;2022-10-31T07:41:32;14.60;99.90
14723;DHT22;7452;55.594;12.986;2022-10-31T07:44:01;14.60;99.90
14723;DHT22;7452;55.594;12.986;2022-10-31T07:46:32;14.70;99.90
14723;DHT22;7452;55.594;12.986;2022-10-31T07:49:01;14.70;99.90
14723;DHT22;7452;55.594;12.986;2022-10-31T07:51:29;14.60;99.90
14723;DHT22;7452;55.594;12.986;2022-10-31T07:53:57;14.60;99.90
14723;DHT22;7452;55.594;12.986;2022-10-31T07:56:24;14.60;99.90
14723;DHT22;7452;55.594;12.986;2022-10-31T07:58:51;14.60;99.90
14723;DHT22;7452;55.594;12.986;2022-10-31T08:01:20;14.60;99.90
14723;DHT22;7452;55.594;12.986;2022-10-31T08:03:47;14.50;99.90
14723;DHT22;7452;55.594;12.986;2022-10-31T08:06:15;14.50;99.90
14723;DHT22;7452;55.594;12.986;2022-10-31T08:08:42;14.50;99.90
14723;DHT22;7452;55.594;12.986;2022-10-31T08:11:09;14.50;99.90
14723;DHT22;7452;55.594;12.986;2022-10-31T08:13:37;14.50;99.90
14723;DHT22;7452;55.594;12.986;2022-10-31T08:16:05;14.50;99.90
14723;DHT22;7452;55.594;12.986;2022-10-31T08:18:34;14.40;99.90
14723;DHT22;7452;55.594;12.986;2022-10-31T08:21:03;14.50;99.90
14723;DHT22;7452;55.594;12.986;2022-10-31T08:23:29;14.50;99.90
14723;DHT22;7452;55.594;12.986;2022-10-31T08:25:57;14.50;99.90
14723;DHT22;7452;55.594;12.986;2022-10-31T08:28:25;14.60;99.90
14723;DHT22;7452;55.594;12.986;2022-10-31T08:30:52;14.60;99.90
14723;DHT22;7452;55.594;12.986;2022-10-31T08:33:19;14.60;99.90
14723;DHT22;7452;55.594;12.986;2022-10-31T08:35:48;14.50;99.90
14723;DHT22;7452;55.594;12.986;2022-10-31T08:38:16;14.50;99.90
14723;DHT22;7452;55.594;12.986;2022-10-31T08:40:48;14.60;99.90
14723;DHT22;7452;55.594;12.986;2022-10-31T08:43:17;14.60;99.90
14723;DHT22;7452;55.594;12.986;2022-10-31T08:45:48;14.70;99.90
14723;DHT22;7452;55.594;12.986;2022-10-31T08:48:16;14.70;99.90
14723;DHT22;7452;55.594;12.986;2022-10-31T08:50:44;14.60;99.90
14723;DHT22;7452;55.594;12.986;2022-10-31T08:53:14;14.50;99.90
14723;DHT22;7452;55.594;12.986;2022-10-31T08:55:42;14.40;99.90
14723;DHT22;7452;55.594;12.986;2022-10-31T08:58:13;14.40;99.90
14723;DHT22;7452;55.594;12.986;2022-10-31T09:00:41;14.40;99.90
14723;DHT22;7452;55.594;12.986;2022-10-31T09:03:10;14.40;99.90
14723;DHT22;7452;55.594;12.986;2022-10-31T09:05:38;14.40;99.90
14723;DHT22;7452;55.594;12.986;2022-10-31T09:08:06;14.30;99.90
14723;DHT22;7452;55.594;12.986;2022-10-31T09:10:38;14.30;99.90
14723;DHT22;7452;55.594;12.986;2022-10-31T09:13:08;14.20;99.90
14723;DHT22;7452;55.594;12.986;2022-10-31T09:15:38;14.10;99.90
14723;DHT22;7452;55.594;12.986;2022-10-31T09:18:05;14.10;99.90
14723;DHT22;7452;55.594;12.986;2022-10-31T09:20:33;14.10;99.90
14723;DHT22;7452;55.594;12.986;2022-10-31T09:23:03;14.10;99.90
14723;DHT22;7452;55.594;12.986;2022-10-31T09:25:37;14.00;99.90
14723;DHT22;7452;55.594;12.986;2022-10-31T09:28:05;14.00;99.90
14723;DHT22;7452;55.594;12.986;2022-10-31T09:30:35;13.90;99.90
14723;DHT22;7452;55.594;12.986;2022-10-31T09:33:04;13.90;99.90
14723;DHT22;7452;55.594;12.986;2022-10-31T09:35:31;13.90;99.90
14723;DHT22;7452;55.594;12.986;2022-10-31T09:37:59;13.90;99.90
14723;DHT22;7452;55.594;12.986;2022-10-31T09:40:32;13.90;99.90
14723;DHT22;7452;55.594;12.986;2022-10-31T09:43:07;13.90;99.90
14723;DHT22;7452;55.594;12.986;2022-10-31T09:45:39;13.80;99.90
14723;DHT22;7452;55.594;12.986;2022-10-31T09:48:19;13.80;99.90
14723;DHT22;7452;55.594;12.986;2022-10-31T09:50:51;13.80;99.90
14723;DHT22;7452;55.594;12.986;2022-10-31T09:53:24;13.80;99.90
14723;DHT22;7452;55.594;12.986;2022-10-31T09:55:55;13.80;99.90
14723;DHT22;7452;55.594;12.986;2022-10-31T09:58:26;13.80;99.90
14723;DHT22;7452;55.594;12.986;2022-10-31T10:00:56;13.80;99.90
14723;DHT22;7452;55.594;12.986;2022-10-31T10:03:33;13.70;99.90
14723;DHT22;7452;55.594;12.986;2022-10-31T10:06:06;13.70;99.90
14723;DHT22;7452;55.594;12.986;2022-10-31T10:08:40;13.60;99.90
14723;DHT22;7452;55.594;12.986;2022-10-31T10:11:21;13.60;99.90
14723;DHT22;7452;55.594;12.986;2022-10-31T10:14:01;13.70;99.90
14723;DHT22;7452;55.594;12.986;2022-10-31T10:16:47;13.70;99.90
14723;DHT22;7452;55.594;12.986;2022-10-31T10:19:30;13.70;99.90
14723;DHT22;7452;55.594;12.986;2022-10-31T10:22:04;13.70;99.90
14723;DHT22;7452;55.594;12.986;2022-10-31T10:24:50;13.70;99.90
14723;DHT22;7452;55.594;12.986;2022-10-31T10:27:27;13.70;99.90
14723;DHT22;7452;55.594;12.986;2022-10-31T10:30:03;13.70;99.90
14723;DHT22;7452;55.594;12.986;2022-10-31T10:32:40;13.70;99.90
14723;DHT22;7452;55.594;12.986;2022-10-31T10:35:24;13.70;99.90
14723;DHT22;7452;55.594;12.986;2022-10-31T10:37:56;13.70;99.90
14723;DHT22;7452;55.594;12.986;2022-10-31T10:40:27;13.70;99.90
14723;DHT22;7452;55.594;12.986;2022-10-31T10:43:00;13.70;99.90
14723;DHT22;7452;55.594;12.986;2022-10-31T10:48:57;13.80;99.90
14723;DHT22;7452;55.594;12.986;2022-10-31T10:51:31;13.80;99.90
14723;DHT22;7452;55.594;12.986;2022-10-31T10:54:09;13.80;99.90
14723;DHT22;7452;55.594;12.986;2022-10-31T10:56:48;13.90;99.90
14723;DHT22;7452;55.594;12.986;2022-10-31T10:59:20;13.90;99.90
14723;DHT22;7452;55.594;12.986;2022-10-31T11:01:51;13.90;99.90
14723;DHT22;7452;55.594;12.986;2022-10-31T11:04:26;13.90;99.90
14723;DHT22;7452;55.594;12.986;2022-10-31T11:07:02;13.90;99.90
14723;DHT22;7452;55.594;12.986;2022-10-31T11:09:29;13.90;99.90
14723;DHT22;7452;55.594;12.986;2022-10-31T11:11:57;13.80;99.90
14723;DHT22;7452;55.594;12.986;2022-10-31T11:14:25;13.80;99.90
14723;DHT22;7452;55.594;12.986;2022-10-31T11:17:07;13.80;99.90
14723;DHT22;7452;55.594;12.986;2022-10-31T11:19:36;13.80;99.90
14723;DHT22;7452;55.594;12.986;2022-10-31T11:22:08;13.80;99.90
14723;DHT22;7452;55.594;12.986;2022-10-31T11:24:41;13.90;99.90
14723;DHT22;7452;55.594;12.986;2022-10-31T11:27:14;13.90;99.90
14723;DHT22;7452;55.594;12.986;2022-10-31T11:29:41;14.00;99.90
14723;DHT22;7452;55.594;12.986;2022-10-31T11:32:19;14.10;99.90
14723;DHT22;7452;55.594;12.986;2022-10-31T11:34:50;14.10;99.90
14723;DHT22;7452;55.594;12.986;2022-10-31T11:37:21;14.00;99.90
14723;DHT22;7452;55.594;12.986;2022-10-31T11:39:52;14.00;99.90
14723;DHT22;7452;55.594;12.986;2022-10-31T11:42:24;14.00;99.90
14723;DHT22;7452;55.594;12.986;2022-10-31T11:44:54;14.10;99.90
14723;DHT22;7452;55.594;12.986;2022-10-31T11:47:26;14.10;99.90
14723;DHT22;7452;55.594;12.986;2022-10-31T11:49:56;14.20;99.90
14723;DHT22;7452;55.594;12.986;2022-10-31T11:52:25;14.30;99.90
14723;DHT22;7452;55.594;12.986;2022-10-31T11:54:54;14.40;99.90
14723;DHT22;7452;55.594;12.986;2022-10-31T11:57:26;14.40;99.90
14723;DHT22;7452;55.594;12.986;2022-10-31T11:59:55;14.40;99.90
14723;DHT22;7452;55.594;12.986;2022-10-31T12:02:24;14.50;99.90
14723;DHT22;7452;55.594;12.986;2022-10-31T12:04:59;14.50;99.90
14723;DHT22;7452;55.594;12.986;2022-10-31T12:07:27;14.50;99.90
14723;DHT22;7452;55.594;12.986;2022-10-31T12:09:54;14.50;99.90
14723;DHT22;7452;55.594;12.986;2022-10-31T12:12:46;14.50;99.90
14723;DHT22;7452;55.594;12.986;2022-10-31T12:15:33;14.50;99.90
14723;DHT22;7452;55.594;12.986;2022-10-31T12:18:35;14.40;99.90
14723;DHT22;7452;55.594;12.986;2022-10-31T12:21:14;14.40;99.90
14723;DHT22;7452;55.594;12.986;2022-10-31T12:23:52;14.50;99.90
14723;DHT22;7452;55.594;12.986;2022-10-31T12:26:25;14.40;99.90
14723;DHT22;7452;55.594;12.986;2022-10-31T12:29:04;14.30;99.90
14723;DHT22;7452;55.594;12.986;2022-10-31T12:31:42;14.30;99.90
14723;DHT22;7452;55.594;12.986;2022-10-31T12:34:33;14.30;99.90
14723;DHT22;7452;55.594;12.986;2022-10-31T12:37:08;14.30;99.90
14723;DHT22;7452;55.594;12.986;2022-10-31T12:39:40;14.40;99.90
14723;DHT22;7452;55.594;12.986;2022-10-31T12:42:17;14.40;99.90
14723;DHT22;7452;55.594;12.986;2022-10-31T12:48:06;14.50;99.90
14723;DHT22;7452;55.594;12.986;2022-10-31T12:50:50;14.50;99.90
14723;DHT22;7452;55.594;12.986;2022-10-31T12:56:27;14.70;99.90
14723;DHT22;7452;55.594;12.986;2022-10-31T12:59:00;14.60;99.90
14723;DHT22;7452;55.594;12.986;2022-10-31T13:01:32;14.70;99.90
14723;DHT22;7452;55.594;12.986;2022-10-31T13:04:03;14.70;99.90
14723;DHT22;7452;55.594;12.986;2022-10-31T13:06:36;14.70;99.90
14723;DHT22;7452;55.594;12.986;2022-10-31T13:09:07;14.70;99.90
14723;DHT22;7452;55.594;12.986;2022-10-31T13:11:37;14.70;99.90
14723;DHT22;7452;55.594;12.986;2022-10-31T13:14:09;14.80;99.90
14723;DHT22;7452;55.594;12.986;2022-10-31T13:16:40;14.70;99.90
14723;DHT22;7452;55.594;12.986;2022-10-31T13:19:13;14.60;99.90
14723;DHT22;7452;55.594;12.986;2022-10-31T13:21:57;14.50;99.90
14723;DHT22;7452;55.594;12.986;2022-10-31T13:24:33;14.50;99.90
14723;DHT22;7452;55.594;12.986;2022-10-31T13:27:03;14.60;99.90
14723;DHT22;7452;55.594;12.986;2022-10-31T13:29:39;14.70;99.90
14723;DHT22;7452;55.594;12.986;2022-10-31T13:32:08;14.60;99.90
14723;DHT22;7452;55.594;12.986;2022-10-31T13:34:38;14.50;99.90
14723;DHT22;7452;55.594;12.986;2022-10-31T13:37:14;14.50;99.90
14723;DHT22;7452;55.594;12.986;2022-10-31T13:40:01;14.50;99.90
14723;DHT22;7452;55.594;12.986;2022-10-31T13:42:41;14.50;99.90
14723;DHT22;7452;55.594;12.986;2022-10-31T13:45:15;14.40;99.90
14723;DHT22;7452;55.594;12.986;2022-10-31T13:47:42;14.40;99.90
14723;DHT22;7452;55.594;12.986;2022-10-31T13:50:20;14.40;99.90
14723;DHT22;7452;55.594;12.986;2022-10-31T13:52:49;14.40;99.90
14723;DHT22;7452;55.594;12.986;2022-10-31T13:55:36;14.40;99.90
14723;DHT22;7452;55.594;12.986;2022-10-31T13:58:04;14.40;99.90
14723;DHT22;7452;55.594;12.986;2022-10-31T14:00:32;14.50;99.90
14723;DHT22;7452;55.594;12.986;2022-10-31T14:03:01;14.50;99.90
14723;DHT22;7452;55.594;12.986;2022-10-31T14:05:30;14.50;99.90
14723;DHT22;7452;55.594;12.986;2022-10-31T14:08:03;14.40;99.90
14723;DHT22;7452;55.594;12.986;2022-10-31T14:10:33;14.30;99.90
14723;DHT22;7452;55.594;12.986;2022-10-31T14:13:06;14.30;99.90
14723;DHT22;7452;55.594;12.986;2022-10-31T14:15:36;14.30;99.90
14723;DHT22;7452;55.594;12.986;2022-10-31T14:18:06;14.30;99.90
14723;DHT22;7452;55.594;12.986;2022-10-31T14:20:44;14.20;99.90
14723;DHT22;7452;55.594;12.986;2022-10-31T14:23:38;14.30;99.90
14723;DHT22;7452;55.594;12.986;2022-10-31T14:26:17;14.30;99.90
14723;DHT22;7452;55.594;12.986;2022-10-31T14:28:46;14.30;99.90
14723;DHT22;7452;55.594;12.986;2022-10-31T14:31:29;14.30;99.90
14723;DHT22;7452;55.594;12.986;2022-10-31T14:33:59;14.30;99.90
14723;DHT22;7452;55.594;12.986;2022-10-31T14:36:35;14.30;99.90
14723;DHT22;7452;55.594;12.986;2022-10-31T14:39:12;14.30;99.90
14723;DHT22;7452;55.594;12.986;2022-10-31T14:41:54;14.30;99.90
14723;DHT22;7452;55.594;12.986;2022-10-31T14:47:35;14.30;99.90
14723;DHT22;7452;55.594;12.986;2022-10-31T14:50:31;14.30;99.90
14723;DHT22;7452;55.594;12.986;2022-10-31T14:53:02;14.30;99.90
14723;DHT22;7452;55.594;12.986;2022-10-31T14:55:41;14.20;99.90
14723;DHT22;7452;55.594;12.986;2022-10-31T14:58:12;14.20;99.90
14723;DHT22;7452;55.594;12.986;2022-10-31T15:00:43;14.20;99.90
14723;DHT22;7452;55.594;12.986;2022-10-31T15:03:14;14.20;99.90
14723;DHT22;7452;55.594;12.986;2022-10-31T15:05:45;14.10;99.90
14723;DHT22;7452;55.594;12.986;2022-10-31T15:08:33;14.10;99.90
14723;DHT22;7452;55.594;12.986;2022-10-31T15:11:09;14.10;99.90
14723;DHT22;7452;55.594;12.986;2022-10-31T15:13:45;14.10;99.90
14723;DHT22;7452;55.594;12.986;2022-10-31T15:16:15;14.00;99.90
14723;DHT22;7452;55.594;12.986;2022-10-31T15:18:49;14.00;99.90
14723;DHT22;7452;55.594;12.986;2022-10-31T15:21:21;13.90;99.90
14723;DHT22;7452;55.594;12.986;2022-10-31T15:23:51;14.00;99.90
14723;DHT22;7452;55.594;12.986;2022-10-31T15:26:22;13.90;99.90
14723;DHT22;7452;55.594;12.986;2022-10-31T15:29:11;13.90;99.90
14723;DHT22;7452;55.594;12.986;2022-10-31T15:31:48;13.90;99.90
14723;DHT22;7452;55.594;12.986;2022-10-31T15:34:20;13.90;99.90
14723;DHT22;7452;55.594;12.986;2022-10-31T15:36:48;14.00;99.90
14723;DHT22;7452;55.594;12.986;2022-10-31T15:39:16;14.00;99.90
14723;DHT22;7452;55.594;12.986;2022-10-31T15:41:49;14.00;99.90
14723;DHT22;7452;55.594;12.986;2022-10-31T15:44:20;14.00;99.90
14723;DHT22;7452;55.594;12.986;2022-10-31T15:46:56;14.00;99.90
14723;DHT22;7452;55.594;12.986;2022-10-31T15:49:32;14.00;99.90
14723;DHT22;7452;55.594;12.986;2022-10-31T15:52:04;13.90;99.90
14723;DHT22;7452;55.594;12.986;2022-10-31T15:54:32;13.90;99.90
14723;DHT22;7452;55.594;12.986;2022-10-31T15:57:02;13.90;99.90
14723;DHT22;7452;55.594;12.986;2022-10-31T15:59:29;13.90;99.90
14723;DHT22;7452;55.594;12.986;2022-10-31T16:02:01;13.80;99.90
14723;DHT22;7452;55.594;12.986;2022-10-31T16:04:31;13.80;99.90
14723;DHT22;7452;55.594;12.986;2022-10-31T16:07:02;13.80;99.90
14723;DHT22;7452;55.594;12.986;2022-10-31T16:09:30;13.80;99.90
14723;DHT22;7452;55.594;12.986;2022-10-31T16:11:57;13.80;99.90